Terminal Aerodrome Forecast
Issued by NWS

Home | Current Version | Previous Version | Graphics & Text | Print | Product List | Glossary On
Versions: 1 2 3 4 5 6 7 8 9 10 11 12 13 14 15 16 17 18
101
FTUS43 KMPX 281740
TAFAXN
TAF
KAXN 281740Z 2818/2918 34005KT P6SM VCSH OVC018
     FM282100 32006KT 6SM -SHRA OVC020
      TEMPO 2822/2902 4SM SHRA OVC014
     FM290200 31006KT 6SM -SHRA OVC018
      TEMPO 2902/2906 4SM SHRA OVC014
     FM290600 30006KT P6SM VCSH OVC012=

USA.gov is the U.S. government's official web portal to all federal, state and local government web resources and services.